sensor_id;sensor_type;location;lat;lon;timestamp;temperature;humidity
1381;DHT22;684;48.342;10.096;2023-08-06T00:01:59;17.00;35.90
1381;DHT22;684;48.342;10.096;2023-08-06T00:04:26;16.90;35.90
1381;DHT22;684;48.342;10.096;2023-08-06T00:06:53;16.90;35.70
1381;DHT22;684;48.342;10.096;2023-08-06T00:09:19;16.90;35.60
1381;DHT22;684;48.342;10.096;2023-08-06T00:11:47;16.90;35.80
1381;DHT22;684;48.342;10.096;2023-08-06T00:14:14;16.80;35.70
1381;DHT22;684;48.342;10.096;2023-08-06T00:16:43;16.80;35.80
1381;DHT22;684;48.342;10.096;2023-08-06T00:19:10;16.80;35.70
1381;DHT22;684;48.342;10.096;2023-08-06T00:21:37;16.80;35.70
1381;DHT22;684;48.342;10.096;2023-08-06T00:24:04;16.80;35.60
1381;DHT22;684;48.342;10.096;2023-08-06T00:26:31;16.80;35.50
1381;DHT22;684;48.342;10.096;2023-08-06T00:28:59;16.80;35.50
1381;DHT22;684;48.342;10.096;2023-08-06T00:31:25;16.80;35.20
1381;DHT22;684;48.342;10.096;2023-08-06T00:33:52;16.80;35.20
1381;DHT22;684;48.342;10.096;2023-08-06T00:36:19;16.80;35.20
1381;DHT22;684;48.342;10.096;2023-08-06T00:38:45;16.80;35.10
1381;DHT22;684;48.342;10.096;2023-08-06T00:41:13;16.80;34.90
1381;DHT22;684;48.342;10.096;2023-08-06T00:43:40;16.70;34.50
1381;DHT22;684;48.342;10.096;2023-08-06T00:46:08;16.70;34.40
1381;DHT22;684;48.342;10.096;2023-08-06T00:48:35;16.70;34.30
1381;DHT22;684;48.342;10.096;2023-08-06T00:51:02;16.70;34.10
1381;DHT22;684;48.342;10.096;2023-08-06T00:53:28;16.70;34.00
1381;DHT22;684;48.342;10.096;2023-08-06T00:55:55;16.70;33.70
1381;DHT22;684;48.342;10.096;2023-08-06T00:58:22;16.70;33.50
1381;DHT22;684;48.342;10.096;2023-08-06T01:00:49;16.70;33.50
1381;DHT22;684;48.342;10.096;2023-08-06T01:03:17;16.70;33.10
1381;DHT22;684;48.342;10.096;2023-08-06T01:05:43;16.70;33.00
1381;DHT22;684;48.342;10.096;2023-08-06T01:08:21;16.70;32.90
1381;DHT22;684;48.342;10.096;2023-08-06T01:11:00;16.60;33.00
1381;DHT22;684;48.342;10.096;2023-08-06T01:13:33;16.70;33.30
1381;DHT22;684;48.342;10.096;2023-08-06T01:16:00;16.60;33.20
1381;DHT22;684;48.342;10.096;2023-08-06T01:18:29;16.60;33.30
1381;DHT22;684;48.342;10.096;2023-08-06T01:20:57;16.60;33.40
1381;DHT22;684;48.342;10.096;2023-08-06T01:23:24;16.60;33.40
1381;DHT22;684;48.342;10.096;2023-08-06T01:28:44;16.60;33.70
1381;DHT22;684;48.342;10.096;2023-08-06T01:31:18;16.60;33.80
1381;DHT22;684;48.342;10.096;2023-08-06T01:33:46;16.60;33.70
1381;DHT22;684;48.342;10.096;2023-08-06T01:36:16;16.50;33.90
1381;DHT22;684;48.342;10.096;2023-08-06T01:38:44;16.50;33.90
1381;DHT22;684;48.342;10.096;2023-08-06T01:41:11;16.50;34.10
1381;DHT22;684;48.342;10.096;2023-08-06T01:43:37;16.40;34.10
1381;DHT22;684;48.342;10.096;2023-08-06T01:46:04;16.40;34.30
1381;DHT22;684;48.342;10.096;2023-08-06T01:48:31;16.40;34.20
1381;DHT22;684;48.342;10.096;2023-08-06T01:50:58;16.40;34.30
1381;DHT22;684;48.342;10.096;2023-08-06T01:53:26;16.40;34.40
1381;DHT22;684;48.342;10.096;2023-08-06T01:55:52;16.30;34.50
1381;DHT22;684;48.342;10.096;2023-08-06T01:58:19;16.30;34.60
1381;DHT22;684;48.342;10.096;2023-08-06T02:00:46;16.30;34.70
1381;DHT22;684;48.342;10.096;2023-08-06T02:03:12;16.30;34.80
1381;DHT22;684;48.342;10.096;2023-08-06T02:05:39;16.20;34.70
1381;DHT22;684;48.342;10.096;2023-08-06T02:08:06;16.20;34.80
1381;DHT22;684;48.342;10.096;2023-08-06T02:10:34;16.30;34.90
1381;DHT22;684;48.342;10.096;2023-08-06T02:13:01;16.20;34.80
1381;DHT22;684;48.342;10.096;2023-08-06T02:15:28;16.20;34.90
1381;DHT22;684;48.342;10.096;2023-08-06T02:17:54;16.20;35.00
1381;DHT22;684;48.342;10.096;2023-08-06T02:20:21;16.20;35.10
1381;DHT22;684;48.342;10.096;2023-08-06T02:22:48;16.20;35.10
1381;DHT22;684;48.342;10.096;2023-08-06T02:25:15;16.20;35.20
1381;DHT22;684;48.342;10.096;2023-08-06T02:27:43;16.20;35.40
1381;DHT22;684;48.342;10.096;2023-08-06T02:30:10;16.20;35.30
1381;DHT22;684;48.342;10.096;2023-08-06T02:32:36;16.20;35.40
1381;DHT22;684;48.342;10.096;2023-08-06T02:35:03;16.20;35.40
1381;DHT22;684;48.342;10.096;2023-08-06T02:37:32;16.20;35.40
1381;DHT22;684;48.342;10.096;2023-08-06T02:39:59;16.10;35.80
1381;DHT22;684;48.342;10.096;2023-08-06T02:42:26;16.10;35.60
1381;DHT22;684;48.342;10.096;2023-08-06T02:44:54;16.10;35.60
1381;DHT22;684;48.342;10.096;2023-08-06T02:47:21;16.10;35.70
1381;DHT22;684;48.342;10.096;2023-08-06T02:49:48;16.20;35.70
1381;DHT22;684;48.342;10.096;2023-08-06T02:52:15;16.10;35.60
1381;DHT22;684;48.342;10.096;2023-08-06T02:54:42;16.10;35.70
1381;DHT22;684;48.342;10.096;2023-08-06T02:57:09;16.10;35.80
1381;DHT22;684;48.342;10.096;2023-08-06T02:59:36;16.10;35.70
1381;DHT22;684;48.342;10.096;2023-08-06T03:02:05;16.10;35.60
1381;DHT22;684;48.342;10.096;2023-08-06T03:04:31;16.10;35.50
1381;DHT22;684;48.342;10.096;2023-08-06T03:06:58;16.20;35.30
1381;DHT22;684;48.342;10.096;2023-08-06T03:09:25;16.10;35.40
1381;DHT22;684;48.342;10.096;2023-08-06T03:11:51;16.10;35.60
1381;DHT22;684;48.342;10.096;2023-08-06T03:14:18;16.10;35.40
1381;DHT22;684;48.342;10.096;2023-08-06T03:16:45;16.10;35.40
1381;DHT22;684;48.342;10.096;2023-08-06T03:19:13;16.20;35.30
1381;DHT22;684;48.342;10.096;2023-08-06T03:21:39;16.20;35.10
1381;DHT22;684;48.342;10.096;2023-08-06T03:24:06;16.20;34.90
1381;DHT22;684;48.342;10.096;2023-08-06T03:26:33;16.20;34.90
1381;DHT22;684;48.342;10.096;2023-08-06T03:28:59;16.10;35.00
1381;DHT22;684;48.342;10.096;2023-08-06T03:31:26;16.10;34.60
1381;DHT22;684;48.342;10.096;2023-08-06T03:33:53;16.10;34.90
1381;DHT22;684;48.342;10.096;2023-08-06T03:36:21;16.10;34.50
1381;DHT22;684;48.342;10.096;2023-08-06T03:38:48;16.10;34.50
1381;DHT22;684;48.342;10.096;2023-08-06T03:41:14;16.00;34.70
1381;DHT22;684;48.342;10.096;2023-08-06T03:43:41;16.00;34.70
1381;DHT22;684;48.342;10.096;2023-08-06T03:46:08;16.00;34.60
1381;DHT22;684;48.342;10.096;2023-08-06T03:48:34;16.00;34.50
1381;DHT22;684;48.342;10.096;2023-08-06T03:51:01;15.90;34.60
1381;DHT22;684;48.342;10.096;2023-08-06T03:53:29;15.90;34.50
1381;DHT22;684;48.342;10.096;2023-08-06T03:55:56;15.80;34.60
1381;DHT22;684;48.342;10.096;2023-08-06T03:58:25;15.80;34.60
1381;DHT22;684;48.342;10.096;2023-08-06T04:00:58;15.70;34.60
1381;DHT22;684;48.342;10.096;2023-08-06T04:03:24;15.60;34.90
1381;DHT22;684;48.342;10.096;2023-08-06T04:05:51;15.60;34.90
1381;DHT22;684;48.342;10.096;2023-08-06T04:08:18;15.60;34.90
1381;DHT22;684;48.342;10.096;2023-08-06T04:10:49;15.60;34.80
1381;DHT22;684;48.342;10.096;2023-08-06T04:13:16;15.50;35.00
1381;DHT22;684;48.342;10.096;2023-08-06T04:15:42;15.40;35.10
1381;DHT22;684;48.342;10.096;2023-08-06T04:18:09;15.40;35.20
1381;DHT22;684;48.342;10.096;2023-08-06T04:20:42;15.40;35.10
1381;DHT22;684;48.342;10.096;2023-08-06T04:23:10;15.40;35.20
1381;DHT22;684;48.342;10.096;2023-08-06T04:25:36;15.30;35.20
1381;DHT22;684;48.342;10.096;2023-08-06T04:28:04;15.30;35.10
1381;DHT22;684;48.342;10.096;2023-08-06T04:30:31;15.30;35.10
1381;DHT22;684;48.342;10.096;2023-08-06T04:32:58;15.30;35.20
1381;DHT22;684;48.342;10.096;2023-08-06T04:35:25;15.30;35.30
1381;DHT22;684;48.342;10.096;2023-08-06T04:37:51;15.30;35.50
1381;DHT22;684;48.342;10.096;2023-08-06T04:40:18;15.40;35.50
1381;DHT22;684;48.342;10.096;2023-08-06T04:42:45;15.50;35.50
1381;DHT22;684;48.342;10.096;2023-08-06T04:45:13;15.60;35.20
1381;DHT22;684;48.342;10.096;2023-08-06T04:47:39;15.70;35.10
1381;DHT22;684;48.342;10.096;2023-08-06T04:50:06;15.70;35.10
1381;DHT22;684;48.342;10.096;2023-08-06T04:52:33;15.80;34.90
1381;DHT22;684;48.342;10.096;2023-08-06T04:55:00;15.80;35.00
1381;DHT22;684;48.342;10.096;2023-08-06T04:57:26;15.90;35.10
1381;DHT22;684;48.342;10.096;2023-08-06T04:59:53;16.00;34.90
1381;DHT22;684;48.342;10.096;2023-08-06T05:02:21;16.00;34.90
1381;DHT22;684;48.342;10.096;2023-08-06T05:04:48;16.10;34.80
1381;DHT22;684;48.342;10.096;2023-08-06T05:07:15;16.10;34.70
1381;DHT22;684;48.342;10.096;2023-08-06T05:09:41;16.20;34.30
1381;DHT22;684;48.342;10.096;2023-08-06T05:12:08;16.20;34.20
1381;DHT22;684;48.342;10.096;2023-08-06T05:14:35;16.10;34.20
1381;DHT22;684;48.342;10.096;2023-08-06T05:17:03;16.20;34.30
1381;DHT22;684;48.342;10.096;2023-08-06T05:19:31;16.20;34.40
1381;DHT22;684;48.342;10.096;2023-08-06T05:21:58;16.20;34.30
1381;DHT22;684;48.342;10.096;2023-08-06T05:24:26;16.20;34.00
1381;DHT22;684;48.342;10.096;2023-08-06T05:26:53;16.20;34.10
1381;DHT22;684;48.342;10.096;2023-08-06T05:29:19;16.20;34.20
1381;DHT22;684;48.342;10.096;2023-08-06T05:31:46;16.20;34.30
1381;DHT22;684;48.342;10.096;2023-08-06T05:34:13;16.30;34.50
1381;DHT22;684;48.342;10.096;2023-08-06T05:36:41;16.30;34.40
1381;DHT22;684;48.342;10.096;2023-08-06T05:39:07;16.30;34.20
1381;DHT22;684;48.342;10.096;2023-08-06T05:41:34;16.30;33.90
1381;DHT22;684;48.342;10.096;2023-08-06T05:44:01;16.30;33.80
1381;DHT22;684;48.342;10.096;2023-08-06T05:46:27;16.30;33.90
1381;DHT22;684;48.342;10.096;2023-08-06T05:48:54;16.30;33.90
1381;DHT22;684;48.342;10.096;2023-08-06T05:51:21;16.30;34.00
1381;DHT22;684;48.342;10.096;2023-08-06T05:53:49;16.30;33.70
1381;DHT22;684;48.342;10.096;2023-08-06T05:56:16;16.30;33.60
1381;DHT22;684;48.342;10.096;2023-08-06T05:58:42;16.30;33.70
1381;DHT22;684;48.342;10.096;2023-08-06T06:01:09;16.30;33.80
1381;DHT22;684;48.342;10.096;2023-08-06T06:03:36;16.40;34.00
1381;DHT22;684;48.342;10.096;2023-08-06T06:06:02;16.50;33.70
1381;DHT22;684;48.342;10.096;2023-08-06T06:08:29;16.60;33.20
1381;DHT22;684;48.342;10.096;2023-08-06T06:10:58;16.80;33.00
1381;DHT22;684;48.342;10.096;2023-08-06T06:13:25;17.30;32.60
1381;DHT22;684;48.342;10.096;2023-08-06T06:15:54;18.40;31.50
1381;DHT22;684;48.342;10.096;2023-08-06T06:18:20;21.10;26.70
1381;DHT22;684;48.342;10.096;2023-08-06T06:20:47;23.20;18.00
1381;DHT22;684;48.342;10.096;2023-08-06T06:23:14;24.80;13.60
1381;DHT22;684;48.342;10.096;2023-08-06T06:25:42;25.80;9.50
1381;DHT22;684;48.342;10.096;2023-08-06T06:28:10;26.80;7.00
1381;DHT22;684;48.342;10.096;2023-08-06T06:30:37;27.70;4.60
1381;DHT22;684;48.342;10.096;2023-08-06T06:33:03;27.50;4.30
1381;DHT22;684;48.342;10.096;2023-08-06T06:35:30;28.00;3.30
1381;DHT22;684;48.342;10.096;2023-08-06T06:37:57;27.50;2.90
1381;DHT22;684;48.342;10.096;2023-08-06T06:40:24;26.60;3.30
1381;DHT22;684;48.342;10.096;2023-08-06T06:42:50;26.00;4.60
1381;DHT22;684;48.342;10.096;2023-08-06T06:45:18;25.70;4.90
1381;DHT22;684;48.342;10.096;2023-08-06T06:47:45;26.20;5.30
1381;DHT22;684;48.342;10.096;2023-08-06T06:50:12;27.20;3.30
1381;DHT22;684;48.342;10.096;2023-08-06T06:52:39;27.60;1.80
1381;DHT22;684;48.342;10.096;2023-08-06T06:55:06;27.00;1.80
1381;DHT22;684;48.342;10.096;2023-08-06T06:57:32;26.00;3.00
1381;DHT22;684;48.342;10.096;2023-08-06T06:59:59;25.00;5.00
1381;DHT22;684;48.342;10.096;2023-08-06T07:02:27;24.50;6.00
1381;DHT22;684;48.342;10.096;2023-08-06T07:04:54;23.80;7.70
1381;DHT22;684;48.342;10.096;2023-08-06T07:07:20;23.00;8.50
1381;DHT22;684;48.342;10.096;2023-08-06T07:09:47;22.40;10.00
1381;DHT22;684;48.342;10.096;2023-08-06T07:12:14;21.90;11.40
1381;DHT22;684;48.342;10.096;2023-08-06T07:14:40;21.50;11.90
1381;DHT22;684;48.342;10.096;2023-08-06T07:17:07;21.30;13.00
1381;DHT22;684;48.342;10.096;2023-08-06T07:19:35;21.10;13.50
1381;DHT22;684;48.342;10.096;2023-08-06T07:22:02;21.40;13.00
1381;DHT22;684;48.342;10.096;2023-08-06T07:24:29;21.70;12.00
1381;DHT22;684;48.342;10.096;2023-08-06T07:26:55;21.50;12.00
1381;DHT22;684;48.342;10.096;2023-08-06T07:29:22;21.50;12.70
1381;DHT22;684;48.342;10.096;2023-08-06T07:31:49;22.00;12.30
1381;DHT22;684;48.342;10.096;2023-08-06T07:34:16;22.60;10.90
1381;DHT22;684;48.342;10.096;2023-08-06T07:36:45;23.20;9.60
1381;DHT22;684;48.342;10.096;2023-08-06T07:39:12;23.70;9.40
1381;DHT22;684;48.342;10.096;2023-08-06T07:41:39;24.10;7.40
1381;DHT22;684;48.342;10.096;2023-08-06T07:44:06;24.30;6.70
1381;DHT22;684;48.342;10.096;2023-08-06T07:46:33;24.20;6.10
1381;DHT22;684;48.342;10.096;2023-08-06T07:49:00;23.60;6.20
1381;DHT22;684;48.342;10.096;2023-08-06T07:51:26;22.90;7.60
1381;DHT22;684;48.342;10.096;2023-08-06T07:53:54;22.40;9.10
1381;DHT22;684;48.342;10.096;2023-08-06T07:56:21;22.00;10.00
1381;DHT22;684;48.342;10.096;2023-08-06T07:58:48;21.70;11.10
1381;DHT22;684;48.342;10.096;2023-08-06T08:01:14;21.40;11.80
1381;DHT22;684;48.342;10.096;2023-08-06T08:03:41;21.20;12.30
1381;DHT22;684;48.342;10.096;2023-08-06T08:06:08;21.10;12.40
1381;DHT22;684;48.342;10.096;2023-08-06T08:08:35;21.10;12.10
1381;DHT22;684;48.342;10.096;2023-08-06T08:11:05;22.50;11.10
1381;DHT22;684;48.342;10.096;2023-08-06T08:13:32;23.30;9.00
1381;DHT22;684;48.342;10.096;2023-08-06T08:16:00;23.10;8.50
1381;DHT22;684;48.342;10.096;2023-08-06T08:21:37;22.30;10.20
1381;DHT22;684;48.342;10.096;2023-08-06T08:24:04;22.00;10.40
1381;DHT22;684;48.342;10.096;2023-08-06T08:26:32;22.10;10.20
1381;DHT22;684;48.342;10.096;2023-08-06T08:28:59;22.30;10.20
1381;DHT22;684;48.342;10.096;2023-08-06T08:31:26;22.70;9.20
1381;DHT22;684;48.342;10.096;2023-08-06T08:33:54;23.00;7.90
1381;DHT22;684;48.342;10.096;2023-08-06T08:36:20;24.50;5.50
1381;DHT22;684;48.342;10.096;2023-08-06T08:38:47;25.10;3.40
1381;DHT22;684;48.342;10.096;2023-08-06T08:41:20;24.70;4.00
1381;DHT22;684;48.342;10.096;2023-08-06T08:43:49;24.20;4.20
1381;DHT22;684;48.342;10.096;2023-08-06T08:46:17;23.60;5.40
1381;DHT22;684;48.342;10.096;2023-08-06T08:48:45;23.00;6.40
1381;DHT22;684;48.342;10.096;2023-08-06T08:51:13;22.60;7.70
1381;DHT22;684;48.342;10.096;2023-08-06T08:53:40;22.70;8.30
1381;DHT22;684;48.342;10.096;2023-08-06T08:56:08;22.60;8.40
1381;DHT22;684;48.342;10.096;2023-08-06T08:58:35;22.40;8.70
1381;DHT22;684;48.342;10.096;2023-08-06T09:01:03;22.10;9.20
1381;DHT22;684;48.342;10.096;2023-08-06T09:03:31;21.70;10.50
1381;DHT22;684;48.342;10.096;2023-08-06T09:05:58;21.50;11.20
1381;DHT22;684;48.342;10.096;2023-08-06T09:08:30;21.30;11.20
1381;DHT22;684;48.342;10.096;2023-08-06T09:11:01;21.10;11.50
1381;DHT22;684;48.342;10.096;2023-08-06T09:13:28;20.90;11.90
1381;DHT22;684;48.342;10.096;2023-08-06T09:15:55;20.80;11.50
1381;DHT22;684;48.342;10.096;2023-08-06T09:18:27;20.70;11.60
1381;DHT22;684;48.342;10.096;2023-08-06T09:20:54;20.70;12.10
1381;DHT22;684;48.342;10.096;2023-08-06T09:23:21;20.50;12.00
1381;DHT22;684;48.342;10.096;2023-08-06T09:25:53;20.30;12.70
1381;DHT22;684;48.342;10.096;2023-08-06T09:28:20;20.20;14.30
1381;DHT22;684;48.342;10.096;2023-08-06T09:30:47;19.90;15.30
1381;DHT22;684;48.342;10.096;2023-08-06T09:33:17;19.70;16.00
1381;DHT22;684;48.342;10.096;2023-08-06T09:35:46;19.60;15.90
1381;DHT22;684;48.342;10.096;2023-08-06T09:38:13;19.40;16.00
1381;DHT22;684;48.342;10.096;2023-08-06T09:40:40;19.30;16.80
1381;DHT22;684;48.342;10.096;2023-08-06T09:43:07;19.20;17.20
1381;DHT22;684;48.342;10.096;2023-08-06T09:45:35;19.00;17.90
1381;DHT22;684;48.342;10.096;2023-08-06T09:48:03;18.90;18.70
1381;DHT22;684;48.342;10.096;2023-08-06T09:50:31;18.80;18.50
1381;DHT22;684;48.342;10.096;2023-08-06T09:53:00;18.70;18.60
1381;DHT22;684;48.342;10.096;2023-08-06T09:55:27;18.60;18.60
1381;DHT22;684;48.342;10.096;2023-08-06T09:57:54;18.50;19.30
1381;DHT22;684;48.342;10.096;2023-08-06T10:00:22;18.50;19.70
1381;DHT22;684;48.342;10.096;2023-08-06T10:02:49;18.50;20.00
1381;DHT22;684;48.342;10.096;2023-08-06T10:05:20;18.50;19.90
1381;DHT22;684;48.342;10.096;2023-08-06T10:07:47;18.40;20.30
1381;DHT22;684;48.342;10.096;2023-08-06T10:10:17;18.30;21.40
1381;DHT22;684;48.342;10.096;2023-08-06T10:12:47;18.40;21.40
1381;DHT22;684;48.342;10.096;2023-08-06T10:15:17;18.30;21.30
1381;DHT22;684;48.342;10.096;2023-08-06T10:17:47;18.20;21.50
1381;DHT22;684;48.342;10.096;2023-08-06T10:20:16;18.20;21.60
1381;DHT22;684;48.342;10.096;2023-08-06T10:22:44;18.20;22.20
1381;DHT22;684;48.342;10.096;2023-08-06T10:25:11;18.30;22.30
1381;DHT22;684;48.342;10.096;2023-08-06T10:27:54;18.50;22.70
1381;DHT22;684;48.342;10.096;2023-08-06T10:30:25;18.70;22.40
1381;DHT22;684;48.342;10.096;2023-08-06T10:32:53;18.90;22.00
1381;DHT22;684;48.342;10.096;2023-08-06T10:35:34;19.20;21.80
1381;DHT22;684;48.342;10.096;2023-08-06T10:38:07;19.50;19.90
1381;DHT22;684;48.342;10.096;2023-08-06T10:40:34;19.90;19.70
1381;DHT22;684;48.342;10.096;2023-08-06T10:43:03;20.40;17.30
1381;DHT22;684;48.342;10.096;2023-08-06T10:45:34;20.70;16.90
1381;DHT22;684;48.342;10.096;2023-08-06T10:48:02;20.90;16.20
1381;DHT22;684;48.342;10.096;2023-08-06T10:50:28;20.90;15.80
1381;DHT22;684;48.342;10.096;2023-08-06T10:52:57;21.10;15.30
1381;DHT22;684;48.342;10.096;2023-08-06T10:55:26;21.10;15.50
1381;DHT22;684;48.342;10.096;2023-08-06T10:57:53;21.20;14.70
1381;DHT22;684;48.342;10.096;2023-08-06T11:00:22;21.00;14.00
1381;DHT22;684;48.342;10.096;2023-08-06T11:02:49;20.70;14.30
1381;DHT22;684;48.342;10.096;2023-08-06T11:05:16;20.40;15.10
1381;DHT22;684;48.342;10.096;2023-08-06T11:07:43;20.20;16.00
1381;DHT22;684;48.342;10.096;2023-08-06T11:10:11;19.90;17.30
1381;DHT22;684;48.342;10.096;2023-08-06T11:12:39;19.80;17.90
1381;DHT22;684;48.342;10.096;2023-08-06T11:15:07;19.80;18.40
1381;DHT22;684;48.342;10.096;2023-08-06T11:17:35;19.80;18.70
1381;DHT22;684;48.342;10.096;2023-08-06T11:20:03;19.90;19.20
1381;DHT22;684;48.342;10.096;2023-08-06T11:22:30;20.10;18.90
1381;DHT22;684;48.342;10.096;2023-08-06T11:24:57;20.10;18.00
1381;DHT22;684;48.342;10.096;2023-08-06T11:27:26;20.00;17.60
1381;DHT22;684;48.342;10.096;2023-08-06T11:29:53;19.70;18.10
1381;DHT22;684;48.342;10.096;2023-08-06T11:32:20;19.40;18.80
1381;DHT22;684;48.342;10.096;2023-08-06T11:34:48;19.10;19.60
1381;DHT22;684;48.342;10.096;2023-08-06T11:37:15;18.90;20.20
1381;DHT22;684;48.342;10.096;2023-08-06T11:39:46;18.70;21.50
1381;DHT22;684;48.342;10.096;2023-08-06T11:42:13;18.60;22.60
1381;DHT22;684;48.342;10.096;2023-08-06T11:44:40;18.50;23.20
1381;DHT22;684;48.342;10.096;2023-08-06T11:47:12;18.50;23.80
1381;DHT22;684;48.342;10.096;2023-08-06T11:49:41;18.60;23.60
1381;DHT22;684;48.342;10.096;2023-08-06T11:52:21;18.70;24.00
1381;DHT22;684;48.342;10.096;2023-08-06T11:55:00;18.80;23.60
1381;DHT22;684;48.342;10.096;2023-08-06T11:57:29;19.00;23.00
1381;DHT22;684;48.342;10.096;2023-08-06T11:59:58;19.10;22.40
1381;DHT22;684;48.342;10.096;2023-08-06T12:02:31;19.20;22.00
1381;DHT22;684;48.342;10.096;2023-08-06T12:05:01;19.30;21.60
1381;DHT22;684;48.342;10.096;2023-08-06T12:07:30;19.40;21.20
1381;DHT22;684;48.342;10.096;2023-08-06T12:09:57;19.50;21.20
1381;DHT22;684;48.342;10.096;2023-08-06T12:12:25;19.60;20.80
1381;DHT22;684;48.342;10.096;2023-08-06T12:14:51;19.90;20.50
1381;DHT22;684;48.342;10.096;2023-08-06T12:17:18;19.90;19.90
1381;DHT22;684;48.342;10.096;2023-08-06T12:19:45;20.00;19.50
1381;DHT22;684;48.342;10.096;2023-08-06T12:22:13;20.20;18.70
1381;DHT22;684;48.342;10.096;2023-08-06T12:24:42;20.40;18.70
1381;DHT22;684;48.342;10.096;2023-08-06T12:27:09;20.60;18.40
1381;DHT22;684;48.342;10.096;2023-08-06T12:29:37;20.60;17.80
1381;DHT22;684;48.342;10.096;2023-08-06T12:32:04;20.40;17.50
1381;DHT22;684;48.342;10.096;2023-08-06T12:34:31;20.30;17.90
1381;DHT22;684;48.342;10.096;2023-08-06T12:36:58;20.20;18.20
1381;DHT22;684;48.342;10.096;2023-08-06T12:39:25;20.00;18.20
1381;DHT22;684;48.342;10.096;2023-08-06T12:41:55;19.90;18.70
1381;DHT22;684;48.342;10.096;2023-08-06T12:44:23;19.80;18.80
1381;DHT22;684;48.342;10.096;2023-08-06T12:46:49;19.80;19.30
1381;DHT22;684;48.342;10.096;2023-08-06T12:49:16;19.90;19.30
1381;DHT22;684;48.342;10.096;2023-08-06T12:51:43;19.90;18.80
1381;DHT22;684;48.342;10.096;2023-08-06T12:54:10;19.90;18.60
1381;DHT22;684;48.342;10.096;2023-08-06T12:56:36;19.80;18.90
1381;DHT22;684;48.342;10.096;2023-08-06T12:59:04;19.60;19.00
1381;DHT22;684;48.342;10.096;2023-08-06T13:01:31;19.50;18.40
1381;DHT22;684;48.342;10.096;2023-08-06T13:03:59;19.50;19.70
1381;DHT22;684;48.342;10.096;2023-08-06T13:06:26;19.40;20.00
1381;DHT22;684;48.342;10.096;2023-08-06T13:08:53;19.40;18.70
1381;DHT22;684;48.342;10.096;2023-08-06T13:11:19;19.40;19.20
1381;DHT22;684;48.342;10.096;2023-08-06T13:13:46;19.40;18.70
1381;DHT22;684;48.342;10.096;2023-08-06T13:16:15;19.40;18.80
1381;DHT22;684;48.342;10.096;2023-08-06T13:18:42;19.30;18.70
1381;DHT22;684;48.342;10.096;2023-08-06T13:21:08;19.30;17.70
1381;DHT22;684;48.342;10.096;2023-08-06T13:23:35;19.10;18.10
1381;DHT22;684;48.342;10.096;2023-08-06T13:26:02;18.90;19.10
1381;DHT22;684;48.342;10.096;2023-08-06T13:28:28;18.80;19.60
1381;DHT22;684;48.342;10.096;2023-08-06T13:30:55;18.60;19.70
1381;DHT22;684;48.342;10.096;2023-08-06T13:33:23;18.50;20.50
1381;DHT22;684;48.342;10.096;2023-08-06T13:35:52;18.40;21.70
1381;DHT22;684;48.342;10.096;2023-08-06T13:38:19;18.40;22.40
1381;DHT22;684;48.342;10.096;2023-08-06T13:40:46;18.50;22.40
1381;DHT22;684;48.342;10.096;2023-08-06T13:43:13;18.50;22.10
1381;DHT22;684;48.342;10.096;2023-08-06T13:45:41;18.60;22.50
1381;DHT22;684;48.342;10.096;2023-08-06T13:48:08;18.80;21.60
1381;DHT22;684;48.342;10.096;2023-08-06T13:50:37;18.90;21.10
1381;DHT22;684;48.342;10.096;2023-08-06T13:53:04;19.00;20.40
1381;DHT22;684;48.342;10.096;2023-08-06T13:55:30;19.10;19.70
1381;DHT22;684;48.342;10.096;2023-08-06T13:57:57;19.10;19.70
1381;DHT22;684;48.342;10.096;2023-08-06T14:00:24;19.20;20.30
1381;DHT22;684;48.342;10.096;2023-08-06T14:02:51;19.30;18.30
1381;DHT22;684;48.342;10.096;2023-08-06T14:05:18;19.30;17.70
1381;DHT22;684;48.342;10.096;2023-08-06T14:07:46;19.30;16.40
1381;DHT22;684;48.342;10.096;2023-08-06T14:10:12;19.40;17.00
1381;DHT22;684;48.342;10.096;2023-08-06T14:12:40;19.30;16.90
1381;DHT22;684;48.342;10.096;2023-08-06T14:15:07;19.30;16.20
1381;DHT22;684;48.342;10.096;2023-08-06T14:17:34;19.30;16.50
1381;DHT22;684;48.342;10.096;2023-08-06T14:20:01;19.30;16.10
1381;DHT22;684;48.342;10.096;2023-08-06T14:22:29;19.20;16.20
1381;DHT22;684;48.342;10.096;2023-08-06T14:24:58;19.00;15.20
1381;DHT22;684;48.342;10.096;2023-08-06T14:27:25;18.80;16.40
1381;DHT22;684;48.342;10.096;2023-08-06T14:29:52;18.60;17.60
1381;DHT22;684;48.342;10.096;2023-08-06T14:32:19;18.60;18.40
1381;DHT22;684;48.342;10.096;2023-08-06T14:34:46;18.60;18.70
1381;DHT22;684;48.342;10.096;2023-08-06T14:37:13;18.60;18.10
1381;DHT22;684;48.342;10.096;2023-08-06T14:39:40;18.50;18.50
1381;DHT22;684;48.342;10.096;2023-08-06T14:42:08;18.50;18.20
1381;DHT22;684;48.342;10.096;2023-08-06T14:44:35;18.40;17.70
1381;DHT22;684;48.342;10.096;2023-08-06T14:47:02;18.30;18.60
1381;DHT22;684;48.342;10.096;2023-08-06T14:49:29;18.10;19.60
1381;DHT22;684;48.342;10.096;2023-08-06T14:51:55;18.10;19.70
1381;DHT22;684;48.342;10.096;2023-08-06T14:54:24;18.00;20.70
1381;DHT22;684;48.342;10.096;2023-08-06T14:56:51;18.10;21.60
1381;DHT22;684;48.342;10.096;2023-08-06T14:59:19;18.00;21.40
1381;DHT22;684;48.342;10.096;2023-08-06T15:01:46;18.00;20.90
1381;DHT22;684;48.342;10.096;2023-08-06T15:04:13;18.00;20.90
1381;DHT22;684;48.342;10.096;2023-08-06T15:06:39;17.90;22.10
1381;DHT22;684;48.342;10.096;2023-08-06T15:09:07;17.80;21.00
1381;DHT22;684;48.342;10.096;2023-08-06T15:11:33;17.70;22.10
1381;DHT22;684;48.342;10.096;2023-08-06T15:14:00;17.80;24.00
1381;DHT22;684;48.342;10.096;2023-08-06T15:16:30;17.90;24.10
1381;DHT22;684;48.342;10.096;2023-08-06T15:18:59;18.00;22.90
1381;DHT22;684;48.342;10.096;2023-08-06T15:21:26;18.20;22.80
1381;DHT22;684;48.342;10.096;2023-08-06T15:23:53;18.30;22.80
1381;DHT22;684;48.342;10.096;2023-08-06T15:26:19;18.40;21.60
1381;DHT22;684;48.342;10.096;2023-08-06T15:28:46;18.50;20.30
1381;DHT22;684;48.342;10.096;2023-08-06T15:31:13;18.50;19.40
1381;DHT22;684;48.342;10.096;2023-08-06T15:33:41;18.40;16.50
1381;DHT22;684;48.342;10.096;2023-08-06T15:36:07;18.40;16.40
1381;DHT22;684;48.342;10.096;2023-08-06T15:38:34;18.40;17.30
1381;DHT22;684;48.342;10.096;2023-08-06T15:41:01;18.40;18.00
1381;DHT22;684;48.342;10.096;2023-08-06T15:43:27;18.30;17.10
1381;DHT22;684;48.342;10.096;2023-08-06T15:45:54;18.20;16.50
1381;DHT22;684;48.342;10.096;2023-08-06T15:48:21;18.10;16.40
1381;DHT22;684;48.342;10.096;2023-08-06T15:50:49;18.00;16.30
1381;DHT22;684;48.342;10.096;2023-08-06T15:53:16;18.00;16.80
1381;DHT22;684;48.342;10.096;2023-08-06T15:55:42;18.00;17.00
1381;DHT22;684;48.342;10.096;2023-08-06T15:58:09;18.10;16.80
1381;DHT22;684;48.342;10.096;2023-08-06T16:00:39;18.10;15.80
1381;DHT22;684;48.342;10.096;2023-08-06T16:03:06;18.00;15.40
1381;DHT22;684;48.342;10.096;2023-08-06T16:05:33;18.00;15.50
1381;DHT22;684;48.342;10.096;2023-08-06T16:08:01;17.90;16.40
1381;DHT22;684;48.342;10.096;2023-08-06T16:10:28;17.90;17.20